sensor_id;sensor_type;location;lat;lon;timestamp;pressure;altitude;pressure_sealevel;temperature;humidity
45369;BME280;51342;55.250;37.668;2023-04-26T00:00:15;98304.47;;;11.39;74.94
45369;BME280;51342;55.250;37.668;2023-04-26T00:02:47;98301.81;;;11.38;74.94
45369;BME280;51342;55.250;37.668;2023-04-26T00:05:19;98301.78;;;11.36;74.78
45369;BME280;51342;55.250;37.668;2023-04-26T00:07:50;98297.50;;;11.37;74.82
45369;BME280;51342;55.250;37.668;2023-04-26T00:10:23;98294.06;;;11.38;75.26
45369;BME280;51342;55.250;37.668;2023-04-26T00:12:54;98298.38;;;11.37;74.86
45369;BME280;51342;55.250;37.668;2023-04-26T00:15:25;98293.16;;;11.36;75.00
45369;BME280;51342;55.250;37.668;2023-04-26T00:17:57;98284.53;;;11.37;74.96
45369;BME280;51342;55.250;37.668;2023-04-26T00:20:28;98284.44;;;11.34;75.17
45369;BME280;51342;55.250;37.668;2023-04-26T00:23:00;98284.53;;;11.37;75.13
45369;BME280;51342;55.250;37.668;2023-04-26T00:25:31;98277.59;;;11.36;74.88
45369;BME280;51342;55.250;37.668;2023-04-26T00:28:03;98266.25;;;11.32;75.42
45369;BME280;51342;55.250;37.668;2023-04-26T00:30:35;98272.28;;;11.31;75.18
45369;BME280;51342;55.250;37.668;2023-04-26T00:33:26;98267.06;;;11.30;75.39
45369;BME280;51342;55.250;37.668;2023-04-26T00:35:57;98261.09;;;11.32;75.54
45369;BME280;51342;55.250;37.668;2023-04-26T00:38:29;98262.84;;;11.33;76.03
45369;BME280;51342;55.250;37.668;2023-04-26T00:41:01;98265.38;;;11.32;75.71
45369;BME280;51342;55.250;37.668;2023-04-26T00:43:33;98253.28;;;11.31;75.57
45369;BME280;51342;55.250;37.668;2023-04-26T00:46:17;98256.56;;;11.25;75.37
45369;BME280;51342;55.250;37.668;2023-04-26T00:49:02;98260.84;;;11.25;75.51
45369;BME280;51342;55.250;37.668;2023-04-26T00:51:58;98251.41;;;11.27;75.69
45369;BME280;51342;55.250;37.668;2023-04-26T00:54:30;98248.81;;;11.27;75.59
45369;BME280;51342;55.250;37.668;2023-04-26T00:57:14;98254.03;;;11.28;75.45
45369;BME280;51342;55.250;37.668;2023-04-26T00:59:45;98245.50;;;11.31;75.54
45369;BME280;51342;55.250;37.668;2023-04-26T01:02:19;98246.34;;;11.30;75.49
45369;BME280;51342;55.250;37.668;2023-04-26T01:05:03;98237.63;;;11.28;75.87
45369;BME280;51342;55.250;37.668;2023-04-26T01:07:37;98233.25;;;11.25;75.97
45369;BME280;51342;55.250;37.668;2023-04-26T01:10:11;98235.84;;;11.25;75.39
45369;BME280;51342;55.250;37.668;2023-04-26T01:12:43;98236.75;;;11.27;75.16
45369;BME280;51342;55.250;37.668;2023-04-26T01:15:15;98233.44;;;11.31;74.92
45369;BME280;51342;55.250;37.668;2023-04-26T01:17:46;98232.56;;;11.31;74.45
45369;BME280;51342;55.250;37.668;2023-04-26T01:20:18;98226.50;;;11.30;74.50
45369;BME280;51342;55.250;37.668;2023-04-26T01:22:50;98218.56;;;11.24;74.13
45369;BME280;51342;55.250;37.668;2023-04-26T01:25:22;98222.97;;;11.28;74.46
45369;BME280;51342;55.250;37.668;2023-04-26T01:28:06;98221.91;;;11.22;74.66
45369;BME280;51342;55.250;37.668;2023-04-26T01:30:50;98213.38;;;11.24;74.60
45369;BME280;51342;55.250;37.668;2023-04-26T01:33:21;98209.91;;;11.24;74.85
45369;BME280;51342;55.250;37.668;2023-04-26T01:35:53;98211.66;;;11.25;75.10
45369;BME280;51342;55.250;37.668;2023-04-26T01:38:24;98210.84;;;11.26;74.69
45369;BME280;51342;55.250;37.668;2023-04-26T01:40:58;98204.66;;;11.22;75.25
45369;BME280;51342;55.250;37.668;2023-04-26T01:43:30;98202.09;;;11.22;75.39
45369;BME280;51342;55.250;37.668;2023-04-26T01:46:01;98201.22;;;11.22;75.94
45369;BME280;51342;55.250;37.668;2023-04-26T01:48:33;98191.72;;;11.22;75.85
45369;BME280;51342;55.250;37.668;2023-04-26T01:51:05;98192.53;;;11.20;75.60
45369;BME280;51342;55.250;37.668;2023-04-26T01:53:37;98192.50;;;11.18;75.47
45369;BME280;51342;55.250;37.668;2023-04-26T01:56:09;98182.91;;;11.15;75.66
45369;BME280;51342;55.250;37.668;2023-04-26T01:58:41;98192.50;;;11.18;75.13
45369;BME280;51342;55.250;37.668;2023-04-26T02:01:14;98180.34;;;11.17;75.12
45369;BME280;51342;55.250;37.668;2023-04-26T02:03:46;98180.34;;;11.17;75.67
45369;BME280;51342;55.250;37.668;2023-04-26T02:06:19;98187.19;;;11.15;75.57
45369;BME280;51342;55.250;37.668;2023-04-26T02:08:52;98171.53;;;11.10;75.75
45369;BME280;51342;55.250;37.668;2023-04-26T02:11:24;98173.25;;;11.10;75.38
45369;BME280;51342;55.250;37.668;2023-04-26T02:13:57;98182.75;;;11.11;75.46
45369;BME280;51342;55.250;37.668;2023-04-26T02:16:29;98173.19;;;11.08;75.63
45369;BME280;51342;55.250;37.668;2023-04-26T02:19:00;98174.94;;;11.09;75.68
45369;BME280;51342;55.250;37.668;2023-04-26T02:21:49;98168.75;;;11.04;76.04
45369;BME280;51342;55.250;37.668;2023-04-26T02:24:21;98166.28;;;11.07;75.79
45369;BME280;51342;55.250;37.668;2023-04-26T02:26:53;98174.06;;;11.09;75.90
45369;BME280;51342;55.250;37.668;2023-04-26T02:29:25;98162.88;;;11.10;75.85
45369;BME280;51342;55.250;37.668;2023-04-26T02:31:57;98167.19;;;11.09;76.06
45369;BME280;51342;55.250;37.668;2023-04-26T02:34:28;98170.69;;;11.11;75.74
45369;BME280;51342;55.250;37.668;2023-04-26T02:37:00;98167.19;;;11.09;75.40
45369;BME280;51342;55.250;37.668;2023-04-26T02:39:32;98160.31;;;11.10;75.54
45369;BME280;51342;55.250;37.668;2023-04-26T02:42:08;98155.91;;;11.07;75.74
45369;BME280;51342;55.250;37.668;2023-04-26T02:44:40;98158.53;;;11.09;75.80
45369;BME280;51342;55.250;37.668;2023-04-26T02:47:12;98155.91;;;11.07;75.67
45369;BME280;51342;55.250;37.668;2023-04-26T02:49:44;98156.00;;;11.10;76.04
45369;BME280;51342;55.250;37.668;2023-04-26T02:52:15;98150.75;;;11.07;75.87
45369;BME280;51342;55.250;37.668;2023-04-26T02:54:47;98157.81;;;11.13;75.78
45369;BME280;51342;55.250;37.668;2023-04-26T02:57:19;98158.69;;;11.13;75.86
45369;BME280;51342;55.250;37.668;2023-04-26T02:59:51;98152.69;;;11.14;75.60
45369;BME280;51342;55.250;37.668;2023-04-26T03:02:22;98145.75;;;11.13;75.97
45369;BME280;51342;55.250;37.668;2023-04-26T03:04:54;98153.66;;;11.18;75.74
45369;BME280;51342;55.250;37.668;2023-04-26T03:07:26;98150.22;;;11.19;76.03
45369;BME280;51342;55.250;37.668;2023-04-26T03:09:57;98146.81;;;11.20;76.02
45369;BME280;51342;55.250;37.668;2023-04-26T03:12:29;98142.50;;;11.21;75.97
45369;BME280;51342;55.250;37.668;2023-04-26T03:15:00;98133.97;;;11.23;75.59
45369;BME280;51342;55.250;37.668;2023-04-26T03:17:34;98130.47;;;11.23;76.04
45369;BME280;51342;55.250;37.668;2023-04-26T03:20:06;98134.00;;;11.25;75.88
45369;BME280;51342;55.250;37.668;2023-04-26T03:22:38;98131.41;;;11.25;75.97
45369;BME280;51342;55.250;37.668;2023-04-26T03:25:10;98128.88;;;11.26;76.03
45369;BME280;51342;55.250;37.668;2023-04-26T03:27:41;98123.00;;;11.32;76.58
45369;BME280;51342;55.250;37.668;2023-04-26T03:30:13;98125.75;;;11.38;76.88
45369;BME280;51342;55.250;37.668;2023-04-26T03:32:46;98124.00;;;11.37;76.45
45369;BME280;51342;55.250;37.668;2023-04-26T03:35:18;98135.41;;;11.44;76.90
45369;BME280;51342;55.250;37.668;2023-04-26T03:37:49;98132.16;;;11.51;76.96
45369;BME280;51342;55.250;37.668;2023-04-26T03:40:22;98126.19;;;11.53;76.87
45369;BME280;51342;55.250;37.668;2023-04-26T03:42:53;98117.63;;;11.56;76.29
45369;BME280;51342;55.250;37.668;2023-04-26T03:45:26;98125.50;;;11.59;76.23
45369;BME280;51342;55.250;37.668;2023-04-26T03:47:57;98123.81;;;11.61;75.58
45369;BME280;51342;55.250;37.668;2023-04-26T03:50:28;98117.84;;;11.63;75.77
45369;BME280;51342;55.250;37.668;2023-04-26T03:53:00;98118.88;;;11.68;75.92
45369;BME280;51342;55.250;37.668;2023-04-26T03:55:32;98117.16;;;11.69;75.42
45369;BME280;51342;55.250;37.668;2023-04-26T03:58:03;98115.56;;;11.74;75.47
45369;BME280;51342;55.250;37.668;2023-04-26T04:00:39;98113.03;;;11.77;75.41
45369;BME280;51342;55.250;37.668;2023-04-26T04:03:13;98113.00;;;11.76;75.89
45369;BME280;51342;55.250;37.668;2023-04-26T04:05:45;98113.00;;;11.76;75.86
45369;BME280;51342;55.250;37.668;2023-04-26T04:08:17;98113.06;;;11.79;75.58
45369;BME280;51342;55.250;37.668;2023-04-26T04:10:49;98114.00;;;11.81;75.88
45369;BME280;51342;55.250;37.668;2023-04-26T04:13:21;98107.00;;;11.78;75.54
45369;BME280;51342;55.250;37.668;2023-04-26T04:15:52;98108.75;;;11.79;75.21
45369;BME280;51342;55.250;37.668;2023-04-26T04:18:23;98095.88;;;11.81;74.85
45369;BME280;51342;55.250;37.668;2023-04-26T04:20:56;98108.03;;;11.82;74.80
45369;BME280;51342;55.250;37.668;2023-04-26T04:23:28;98103.78;;;11.85;74.74
45369;BME280;51342;55.250;37.668;2023-04-26T04:25:59;98094.31;;;11.86;74.52
45369;BME280;51342;55.250;37.668;2023-04-26T04:28:31;98096.13;;;11.90;74.21
45369;BME280;51342;55.250;37.668;2023-04-26T04:31:04;98098.78;;;11.91;74.48
45369;BME280;51342;55.250;37.668;2023-04-26T04:33:36;98093.66;;;11.94;73.65
45369;BME280;51342;55.250;37.668;2023-04-26T04:36:08;98098.06;;;11.97;74.03
45369;BME280;51342;55.250;37.668;2023-04-26T04:38:40;98096.28;;;11.96;73.89
45369;BME280;51342;55.250;37.668;2023-04-26T04:41:12;98098.09;;;11.99;73.84
45369;BME280;51342;55.250;37.668;2023-04-26T04:43:44;98092.88;;;11.97;73.76
45369;BME280;51342;55.250;37.668;2023-04-26T04:46:16;98099.81;;;11.98;74.21
45369;BME280;51342;55.250;37.668;2023-04-26T04:48:48;98099.84;;;12.00;73.85
45369;BME280;51342;55.250;37.668;2023-04-26T04:51:19;98104.16;;;11.99;73.53
45369;BME280;51342;55.250;37.668;2023-04-26T04:53:51;98102.44;;;12.00;73.42
45369;BME280;51342;55.250;37.668;2023-04-26T04:56:23;98096.38;;;11.99;73.27
45369;BME280;51342;55.250;37.668;2023-04-26T04:58:56;98099.84;;;12.00;73.09
45369;BME280;51342;55.250;37.668;2023-04-26T05:01:27;98088.59;;;11.99;73.90
45369;BME280;51342;55.250;37.668;2023-04-26T05:04:02;98088.63;;;12.01;74.23
45369;BME280;51342;55.250;37.668;2023-04-26T05:06:34;98089.44;;;11.98;73.92
45369;BME280;51342;55.250;37.668;2023-04-26T05:09:07;98098.13;;;12.00;73.39
45369;BME280;51342;55.250;37.668;2023-04-26T05:11:39;98098.13;;;12.00;73.55
45369;BME280;51342;55.250;37.668;2023-04-26T05:14:16;98087.75;;;12.00;73.80
45369;BME280;51342;55.250;37.668;2023-04-26T05:16:47;98093.81;;;12.01;73.76
45369;BME280;51342;55.250;37.668;2023-04-26T05:19:18;98084.31;;;12.01;73.56
45369;BME280;51342;55.250;37.668;2023-04-26T05:21:51;98093.09;;;12.06;73.34
45369;BME280;51342;55.250;37.668;2023-04-26T05:24:22;98081.94;;;12.09;74.11
45369;BME280;51342;55.250;37.668;2023-04-26T05:26:54;98085.44;;;12.11;73.69
45369;BME280;51342;55.250;37.668;2023-04-26T05:30:00;98084.56;;;12.10;73.27
45369;BME280;51342;55.250;37.668;2023-04-26T05:32:50;98086.25;;;12.08;73.25
45369;BME280;51342;55.250;37.668;2023-04-26T05:35:36;98086.16;;;12.05;74.01
45369;BME280;51342;55.250;37.668;2023-04-26T05:38:08;98082.75;;;12.08;73.80
45369;BME280;51342;55.250;37.668;2023-04-26T05:40:40;98088.00;;;12.09;73.25
45369;BME280;51342;55.250;37.668;2023-04-26T05:43:23;98073.97;;;12.01;74.30
45369;BME280;51342;55.250;37.668;2023-04-26T05:45:56;98086.13;;;12.04;74.34
45369;BME280;51342;55.250;37.668;2023-04-26T05:48:28;98089.59;;;12.04;74.12
45369;BME280;51342;55.250;37.668;2023-04-26T05:51:01;98082.69;;;12.05;74.17
45369;BME280;51342;55.250;37.668;2023-04-26T05:53:32;98093.13;;;12.08;73.92
45369;BME280;51342;55.250;37.668;2023-04-26T05:56:04;98083.69;;;12.10;74.65
45369;BME280;51342;55.250;37.668;2023-04-26T05:58:35;98091.53;;;12.13;74.85
45369;BME280;51342;55.250;37.668;2023-04-26T06:01:07;98084.53;;;12.09;74.31
45369;BME280;51342;55.250;37.668;2023-04-26T06:03:39;98100.13;;;12.10;74.14
45369;BME280;51342;55.250;37.668;2023-04-26T06:06:10;98100.16;;;12.12;74.27
45369;BME280;51342;55.250;37.668;2023-04-26T06:08:44;98094.09;;;12.11;74.68
45369;BME280;51342;55.250;37.668;2023-04-26T06:11:16;98095.91;;;12.14;74.72
45369;BME280;51342;55.250;37.668;2023-04-26T06:13:47;98101.16;;;12.17;74.06
45369;BME280;51342;55.250;37.668;2023-04-26T06:16:21;98099.44;;;12.17;74.62
45369;BME280;51342;55.250;37.668;2023-04-26T06:18:52;98100.28;;;12.16;74.56
45369;BME280;51342;55.250;37.668;2023-04-26T06:21:24;98098.59;;;12.18;74.55
45369;BME280;51342;55.250;37.668;2023-04-26T06:23:56;98107.25;;;12.19;74.33
45369;BME280;51342;55.250;37.668;2023-04-26T06:26:31;98104.63;;;12.17;74.77
45369;BME280;51342;55.250;37.668;2023-04-26T06:29:03;98104.66;;;12.19;74.01
45369;BME280;51342;55.250;37.668;2023-04-26T06:31:34;98110.72;;;12.19;74.12
45369;BME280;51342;55.250;37.668;2023-04-26T06:34:06;98110.72;;;12.19;73.58
45369;BME280;51342;55.250;37.668;2023-04-26T06:36:37;98109.84;;;12.19;74.44
45369;BME280;51342;55.250;37.668;2023-04-26T06:39:09;98108.13;;;12.19;74.85
45369;BME280;51342;55.250;37.668;2023-04-26T06:41:42;98111.66;;;12.22;74.71
45369;BME280;51342;55.250;37.668;2023-04-26T06:44:15;98109.06;;;12.22;74.63
45369;BME280;51342;55.250;37.668;2023-04-26T06:46:47;98116.00;;;12.24;74.50
45369;BME280;51342;55.250;37.668;2023-04-26T06:49:19;98113.47;;;12.26;74.41
45369;BME280;51342;55.250;37.668;2023-04-26T06:51:51;98110.06;;;12.28;74.57
45369;BME280;51342;55.250;37.668;2023-04-26T06:54:27;98123.03;;;12.28;74.53
45369;BME280;51342;55.250;37.668;2023-04-26T06:56:59;98118.72;;;12.29;74.74
45369;BME280;51342;55.250;37.668;2023-04-26T06:59:30;98130.06;;;12.32;74.37
45369;BME280;51342;55.250;37.668;2023-04-26T07:02:02;98121.47;;;12.35;74.47
45369;BME280;51342;55.250;37.668;2023-04-26T07:04:33;98127.63;;;12.38;74.29
45369;BME280;51342;55.250;37.668;2023-04-26T07:07:05;98119.88;;;12.40;74.58
45369;BME280;51342;55.250;37.668;2023-04-26T07:09:36;98118.38;;;12.48;75.17
45369;BME280;51342;55.250;37.668;2023-04-26T07:12:10;98132.25;;;12.52;75.01
45369;BME280;51342;55.250;37.668;2023-04-26T07:14:42;98126.28;;;12.54;75.00
45369;BME280;51342;55.250;37.668;2023-04-26T07:17:13;98135.00;;;12.58;75.14
45369;BME280;51342;55.250;37.668;2023-04-26T07:19:45;98135.00;;;12.58;74.75
45369;BME280;51342;55.250;37.668;2023-04-26T07:22:16;98142.91;;;12.62;75.30
45369;BME280;51342;55.250;37.668;2023-04-26T07:24:48;98139.47;;;12.63;75.07
45369;BME280;51342;55.250;37.668;2023-04-26T07:27:19;98144.78;;;12.68;75.32
45369;BME280;51342;55.250;37.668;2023-04-26T07:29:54;98131.78;;;12.66;74.95
45369;BME280;51342;55.250;37.668;2023-04-26T07:32:28;98148.19;;;12.65;74.53
45369;BME280;51342;55.250;37.668;2023-04-26T07:34:59;98143.78;;;12.63;74.45
45369;BME280;51342;55.250;37.668;2023-04-26T07:37:31;98149.97;;;12.68;74.63
45369;BME280;51342;55.250;37.668;2023-04-26T07:40:03;98148.31;;;12.71;74.48
45369;BME280;51342;55.250;37.668;2023-04-26T07:42:35;98150.88;;;12.70;74.25
45369;BME280;51342;55.250;37.668;2023-04-26T07:45:07;98153.44;;;12.68;74.59
45369;BME280;51342;55.250;37.668;2023-04-26T07:47:39;98148.25;;;12.68;74.62
45369;BME280;51342;55.250;37.668;2023-04-26T07:50:10;98148.22;;;12.67;74.58
45369;BME280;51342;55.250;37.668;2023-04-26T07:52:42;98160.25;;;12.65;74.54
45369;BME280;51342;55.250;37.668;2023-04-26T07:55:13;98160.34;;;12.68;75.10
45369;BME280;51342;55.250;37.668;2023-04-26T07:57:45;98159.59;;;12.73;75.34
45369;BME280;51342;55.250;37.668;2023-04-26T08:00:17;98164.09;;;12.81;75.83
45369;BME280;51342;55.250;37.668;2023-04-26T08:02:49;98162.56;;;12.89;75.90
45369;BME280;51342;55.250;37.668;2023-04-26T08:05:20;98172.28;;;12.97;75.36
45369;BME280;51342;55.250;37.668;2023-04-26T08:07:52;98171.53;;;13.03;75.10
45369;BME280;51342;55.250;37.668;2023-04-26T08:10:23;98178.59;;;13.09;75.29
45369;BME280;51342;55.250;37.668;2023-04-26T08:12:54;98173.50;;;13.13;75.24
45369;BME280;51342;55.250;37.668;2023-04-26T08:15:27;98174.50;;;13.18;75.05
45369;BME280;51342;55.250;37.668;2023-04-26T08:17:59;98179.78;;;13.21;74.86
45369;BME280;51342;55.250;37.668;2023-04-26T08:20:30;98176.38;;;13.24;74.52
45369;BME280;51342;55.250;37.668;2023-04-26T08:23:02;98189.41;;;13.25;74.91
45369;BME280;51342;55.250;37.668;2023-04-26T08:25:34;98188.59;;;13.28;74.63
45369;BME280;51342;55.250;37.668;2023-04-26T08:28:05;98189.59;;;13.33;74.32
45369;BME280;51342;55.250;37.668;2023-04-26T08:30:39;98192.25;;;13.38;74.19
45369;BME280;51342;55.250;37.668;2023-04-26T08:33:10;98187.13;;;13.39;74.16
45369;BME280;51342;55.250;37.668;2023-04-26T08:35:42;98196.94;;;13.52;73.89
45369;BME280;51342;55.250;37.668;2023-04-26T08:38:13;98188.38;;;13.58;74.29
45369;BME280;51342;55.250;37.668;2023-04-26T08:40:45;98188.41;;;13.60;73.57
45369;BME280;51342;55.250;37.668;2023-04-26T08:43:17;98198.88;;;13.63;73.25
45369;BME280;51342;55.250;37.668;2023-04-26T08:45:49;98191.94;;;13.62;72.88
45369;BME280;51342;55.250;37.668;2023-04-26T08:48:21;98197.13;;;13.62;72.31
45369;BME280;51342;55.250;37.668;2023-04-26T08:50:53;98195.28;;;13.56;72.30
45369;BME280;51342;55.250;37.668;2023-04-26T08:53:25;98199.50;;;13.51;72.15
45369;BME280;51342;55.250;37.668;2023-04-26T08:55:58;98189.84;;;13.45;72.24
45369;BME280;51342;55.250;37.668;2023-04-26T08:58:31;98205.34;;;13.42;72.09
45369;BME280;51342;55.250;37.668;2023-04-26T09:01:03;98204.47;;;13.42;72.77
45369;BME280;51342;55.250;37.668;2023-04-26T09:03:35;98204.47;;;13.40;71.47
45369;BME280;51342;55.250;37.668;2023-04-26T09:06:07;98207.97;;;13.42;71.70
45369;BME280;51342;55.250;37.668;2023-04-26T09:08:40;98207.09;;;13.42;71.91
45369;BME280;51342;55.250;37.668;2023-04-26T09:11:12;98213.13;;;13.41;71.63
45369;BME280;51342;55.250;37.668;2023-04-26T09:13:44;98214.91;;;13.43;72.00
45369;BME280;51342;55.250;37.668;2023-04-26T09:16:15;98210.69;;;13.48;72.19
45369;BME280;51342;55.250;37.668;2023-04-26T09:18:50;98222.06;;;13.53;72.28
45369;BME280;51342;55.250;37.668;2023-04-26T09:21:22;98220.53;;;13.62;72.37
45369;BME280;51342;55.250;37.668;2023-04-26T09:24:00;98219.72;;;13.66;72.28
45369;BME280;51342;55.250;37.668;2023-04-26T09:26:34;98225.16;;;13.78;71.90
45369;BME280;51342;55.250;37.668;2023-04-26T09:29:17;98225.22;;;13.79;71.84
45369;BME280;51342;55.250;37.668;2023-04-26T09:31:49;98225.38;;;13.87;72.18
45369;BME280;51342;55.250;37.668;2023-04-26T09:34:20;98221.06;;;13.89;71.87
45369;BME280;51342;55.250;37.668;2023-04-26T09:36:54;98228.88;;;13.89;71.25
45369;BME280;51342;55.250;37.668;2023-04-26T09:39:34;98226.09;;;13.78;71.40
45369;BME280;51342;55.250;37.668;2023-04-26T09:42:08;98233.88;;;13.78;71.83
45369;BME280;51342;55.250;37.668;2023-04-26T09:44:41;98238.16;;;13.78;72.13
45369;BME280;51342;55.250;37.668;2023-04-26T09:47:12;98234.78;;;13.81;72.14
45369;BME280;51342;55.250;37.668;2023-04-26T09:49:45;98243.53;;;13.84;71.81
45369;BME280;51342;55.250;37.668;2023-04-26T09:52:18;98241.84;;;13.88;71.57
45369;BME280;51342;55.250;37.668;2023-04-26T09:54:53;98244.53;;;13.91;71.42
45369;BME280;51342;55.250;37.668;2023-04-26T09:57:25;98251.56;;;13.96;71.39
45369;BME280;51342;55.250;37.668;2023-04-26T09:59:56;98254.25;;;14.01;71.20
45369;BME280;51342;55.250;37.668;2023-04-26T10:02:27;98253.44;;;14.03;71.83
45369;BME280;51342;55.250;37.668;2023-04-26T10:05:00;98258.66;;;14.05;71.22
45369;BME280;51342;55.250;37.668;2023-04-26T10:07:33;98261.16;;;14.00;71.52
45369;BME280;51342;55.250;37.668;2023-04-26T10:10:06;98272.41;;;13.98;71.41
45369;BME280;51342;55.250;37.668;2023-04-26T10:12:40;98258.38;;;13.90;71.36
45369;BME280;51342;55.250;37.668;2023-04-26T10:15:14;98269.56;;;13.87;71.68
45369;BME280;51342;55.250;37.668;2023-04-26T10:17:46;98279.88;;;13.83;71.04
45369;BME280;51342;55.250;37.668;2023-04-26T10:20:19;98278.94;;;13.79;70.91
45369;BME280;51342;55.250;37.668;2023-04-26T10:22:54;98285.75;;;13.74;70.50
45369;BME280;51342;55.250;37.668;2023-04-26T10:25:39;98286.44;;;13.67;70.67
45369;BME280;51342;55.250;37.668;2023-04-26T10:28:10;98294.25;;;13.67;70.46
45369;BME280;51342;55.250;37.668;2023-04-26T10:30:59;98290.59;;;13.59;71.22
45369;BME280;51342;55.250;37.668;2023-04-26T10:33:31;98298.50;;;13.63;71.72
45369;BME280;51342;55.250;37.668;2023-04-26T10:36:08;98300.25;;;13.63;71.93
45369;BME280;51342;55.250;37.668;2023-04-26T10:38:41;98302.34;;;13.43;72.00
45369;BME280;51342;55.250;37.668;2023-04-26T10:41:37;98302.72;;;13.58;71.41
45369;BME280;51342;55.250;37.668;2023-04-26T10:44:35;98310.75;;;13.67;71.84
45369;BME280;51342;55.250;37.668;2023-04-26T10:47:32;98321.28;;;13.73;71.56
45369;BME280;51342;55.250;37.668;2023-04-26T10:50:10;98324.16;;;13.86;71.88
45369;BME280;51342;55.250;37.668;2023-04-26T10:55:40;98316.13;;;14.17;73.00
45369;BME280;51342;55.250;37.668;2023-04-26T10:58:29;98311.13;;;14.25;73.28
45369;BME280;51342;55.250;37.668;2023-04-26T11:01:15;98310.53;;;14.40;72.23
45369;BME280;51342;55.250;37.668;2023-04-26T11:06:49;98311.66;;;14.51;72.47
45369;BME280;51342;55.250;37.668;2023-04-26T11:09:35;98311.84;;;14.60;72.25
45369;BME280;51342;55.250;37.668;2023-04-26T11:12:11;98305.97;;;14.72;71.73
45369;BME280;51342;55.250;37.668;2023-04-26T11:14:44;98314.13;;;14.92;71.48
45369;BME280;51342;55.250;37.668;2023-04-26T11:17:16;98319.63;;;15.07;70.96
45369;BME280;51342;55.250;37.668;2023-04-26T11:19:47;98316.44;;;15.23;70.94
45369;BME280;51342;55.250;37.668;2023-04-26T11:22:21;98333.28;;;15.44;71.04
45369;BME280;51342;55.250;37.668;2023-04-26T11:24:53;98330.78;;;15.51;69.83
45369;BME280;51342;55.250;37.668;2023-04-26T11:27:26;98340.44;;;15.57;68.99
45369;BME280;51342;55.250;37.668;2023-04-26T11:30:02;98349.09;;;15.56;69.15
45369;BME280;51342;55.250;37.668;2023-04-26T11:32:34;98349.91;;;15.52;69.32
45369;BME280;51342;55.250;37.668;2023-04-26T11:35:06;98335.06;;;15.48;70.18
45369;BME280;51342;55.250;37.668;2023-04-26T11:37:37;98323.63;;;15.38;69.87
45369;BME280;51342;55.250;37.668;2023-04-26T11:40:09;98341.00;;;15.37;69.42
45369;BME280;51342;55.250;37.668;2023-04-26T11:42:44;98346.22;;;15.37;69.23
45369;BME280;51342;55.250;37.668;2023-04-26T11:45:15;98346.25;;;15.41;69.16
45369;BME280;51342;55.250;37.668;2023-04-26T11:47:47;98342.78;;;15.42;69.64
45369;BME280;51342;55.250;37.668;2023-04-26T11:50:19;98344.50;;;15.40;69.56
45369;BME280;51342;55.250;37.668;2023-04-26T11:52:55;98354.06;;;15.42;69.83
45369;BME280;51342;55.250;37.668;2023-04-26T11:55:31;98355.84;;;15.43;70.00
45369;BME280;51342;55.250;37.668;2023-04-26T11:58:09;98345.38;;;15.40;70.79
45369;BME280;51342;55.250;37.668;2023-04-26T12:00:55;98346.34;;;15.47;71.49
45369;BME280;51342;55.250;37.668;2023-04-26T12:03:31;98343.97;;;15.60;70.40
45369;BME280;51342;55.250;37.668;2023-04-26T12:06:05;98329.41;;;15.73;70.47
45369;BME280;51342;55.250;37.668;2023-04-26T12:08:37;98335.75;;;15.89;70.14
45369;BME280;51342;55.250;37.668;2023-04-26T12:11:08;98335.84;;;15.98;68.41
45369;BME280;51342;55.250;37.668;2023-04-26T12:13:39;98336.00;;;16.09;69.47
45369;BME280;51342;55.250;37.668;2023-04-26T12:16:13;98336.94;;;16.12;67.26
45369;BME280;51342;55.250;37.668;2023-04-26T12:18:50;98336.16;;;16.21;66.82
45369;BME280;51342;55.250;37.668;2023-04-26T12:21:24;98336.28;;;16.29;65.33
45369;BME280;51342;55.250;37.668;2023-04-26T12:23:56;98338.09;;;16.36;65.57
45369;BME280;51342;55.250;37.668;2023-04-26T12:26:43;98332.00;;;16.37;65.14
45369;BME280;51342;55.250;37.668;2023-04-26T12:29:14;98340.84;;;16.47;64.89
45369;BME280;51342;55.250;37.668;2023-04-26T12:31:46;98333.88;;;16.46;63.98
45369;BME280;51342;55.250;37.668;2023-04-26T12:34:18;98332.06;;;16.41;63.08
45369;BME280;51342;55.250;37.668;2023-04-26T12:36:49;98338.16;;;16.42;62.31
45369;BME280;51342;55.250;37.668;2023-04-26T12:39:21;98334.72;;;16.44;62.09
45369;BME280;51342;55.250;37.668;2023-04-26T12:41:52;98328.66;;;16.46;61.91
45369;BME280;51342;55.250;37.668;2023-04-26T12:44:25;98331.28;;;16.47;61.10
45369;BME280;51342;55.250;37.668;2023-04-26T12:46:57;98339.97;;;16.48;60.75
45369;BME280;51342;55.250;37.668;2023-04-26T12:49:28;98337.38;;;16.48;60.42
45369;BME280;51342;55.250;37.668;2023-04-26T12:52:00;98332.09;;;16.44;59.79
45369;BME280;51342;55.250;37.668;2023-04-26T12:54:32;98334.75;;;16.48;59.18
45369;BME280;51342;55.250;37.668;2023-04-26T12:57:04;98335.63;;;16.50;58.90
45369;BME280;51342;55.250;37.668;2023-04-26T12:59:36;98348.69;;;16.50;58.66
45369;BME280;51342;55.250;37.668;2023-04-26T13:02:07;98349.56;;;16.50;57.53
45369;BME280;51342;55.250;37.668;2023-04-26T13:04:40;98347.81;;;16.49;58.13
45369;BME280;51342;55.250;37.668;2023-04-26T13:07:11;98346.09;;;16.50;57.58
45369;BME280;51342;55.250;37.668;2023-04-26T13:09:43;98356.56;;;16.53;57.99
45369;BME280;51342;55.250;37.668;2023-04-26T13:12:15;98354.84;;;16.52;57.53
45369;BME280;51342;55.250;37.668;2023-04-26T13:14:46;98355.72;;;16.52;57.52
45369;BME280;51342;55.250;37.668;2023-04-26T13:17:17;98352.16;;;16.49;56.74
45369;BME280;51342;55.250;37.668;2023-04-26T13:19:49;98360.88;;;16.48;56.39
45369;BME280;51342;55.250;37.668;2023-04-26T13:22:21;98353.84;;;16.42;56.88
45369;BME280;51342;55.250;37.668;2023-04-26T13:24:52;98354.69;;;16.41;56.43
45369;BME280;51342;55.250;37.668;2023-04-26T13:27:24;98357.25;;;16.38;56.39